sensor_id;sensor_type;location;lat;lon;timestamp;temperature;humidity
27647;DHT22;42229;51.230;6.240;2022-12-07T00:01:43;7.00;99.90
27647;DHT22;42229;51.230;6.240;2022-12-07T00:04:12;7.00;99.90
27647;DHT22;42229;51.230;6.240;2022-12-07T00:06:40;7.00;99.90
27647;DHT22;42229;51.230;6.240;2022-12-07T00:09:10;6.90;99.90
27647;DHT22;42229;51.230;6.240;2022-12-07T00:11:38;6.90;99.90
27647;DHT22;42229;51.230;6.240;2022-12-07T00:14:09;6.90;99.90
27647;DHT22;42229;51.230;6.240;2022-12-07T00:16:40;6.90;99.90
27647;DHT22;42229;51.230;6.240;2022-12-07T00:19:06;6.90;99.90
27647;DHT22;42229;51.230;6.240;2022-12-07T00:21:34;6.80;99.90
27647;DHT22;42229;51.230;6.240;2022-12-07T00:24:01;6.80;99.90
27647;DHT22;42229;51.230;6.240;2022-12-07T00:26:29;6.80;99.90
27647;DHT22;42229;51.230;6.240;2022-12-07T00:29:00;6.80;99.90
27647;DHT22;42229;51.230;6.240;2022-12-07T00:31:32;6.80;99.90
27647;DHT22;42229;51.230;6.240;2022-12-07T00:34:01;6.80;99.90
27647;DHT22;42229;51.230;6.240;2022-12-07T00:36:27;6.80;99.90
27647;DHT22;42229;51.230;6.240;2022-12-07T00:38:54;6.80;99.90
27647;DHT22;42229;51.230;6.240;2022-12-07T00:41:22;6.80;99.90
27647;DHT22;42229;51.230;6.240;2022-12-07T00:43:49;6.80;99.90
27647;DHT22;42229;51.230;6.240;2022-12-07T00:46:16;6.70;99.90
27647;DHT22;42229;51.230;6.240;2022-12-07T00:48:42;6.80;99.90
27647;DHT22;42229;51.230;6.240;2022-12-07T00:51:13;6.80;99.90
27647;DHT22;42229;51.230;6.240;2022-12-07T00:53:40;6.80;99.90
27647;DHT22;42229;51.230;6.240;2022-12-07T00:56:07;6.80;99.90
27647;DHT22;42229;51.230;6.240;2022-12-07T00:58:34;6.80;99.90
27647;DHT22;42229;51.230;6.240;2022-12-07T01:01:01;6.80;99.90
27647;DHT22;42229;51.230;6.240;2022-12-07T01:03:29;6.80;99.90
27647;DHT22;42229;51.230;6.240;2022-12-07T01:05:55;6.80;99.90
27647;DHT22;42229;51.230;6.240;2022-12-07T01:08:22;6.80;99.90
27647;DHT22;42229;51.230;6.240;2022-12-07T01:10:49;6.80;99.90
27647;DHT22;42229;51.230;6.240;2022-12-07T01:13:26;6.80;99.90
27647;DHT22;42229;51.230;6.240;2022-12-07T01:15:56;6.80;99.90
27647;DHT22;42229;51.230;6.240;2022-12-07T01:18:24;6.80;99.90
27647;DHT22;42229;51.230;6.240;2022-12-07T01:21:03;6.80;99.90
27647;DHT22;42229;51.230;6.240;2022-12-07T01:23:31;6.80;99.90
27647;DHT22;42229;51.230;6.240;2022-12-07T01:25:59;6.80;99.90
27647;DHT22;42229;51.230;6.240;2022-12-07T01:28:27;6.80;99.90
27647;DHT22;42229;51.230;6.240;2022-12-07T01:30:57;6.80;99.90
27647;DHT22;42229;51.230;6.240;2022-12-07T01:33:24;6.70;99.90
27647;DHT22;42229;51.230;6.240;2022-12-07T01:35:52;6.70;99.90
27647;DHT22;42229;51.230;6.240;2022-12-07T01:38:18;6.70;99.90
27647;DHT22;42229;51.230;6.240;2022-12-07T01:40:45;6.70;99.90
27647;DHT22;42229;51.230;6.240;2022-12-07T01:43:17;6.70;99.90
27647;DHT22;42229;51.230;6.240;2022-12-07T01:45:45;6.70;99.90
27647;DHT22;42229;51.230;6.240;2022-12-07T01:48:12;6.70;99.90
27647;DHT22;42229;51.230;6.240;2022-12-07T01:50:41;6.60;99.90
27647;DHT22;42229;51.230;6.240;2022-12-07T01:53:09;6.60;99.90
27647;DHT22;42229;51.230;6.240;2022-12-07T01:55:37;6.60;99.90
27647;DHT22;42229;51.230;6.240;2022-12-07T01:58:06;6.60;99.90
27647;DHT22;42229;51.230;6.240;2022-12-07T02:00:32;6.60;99.90
27647;DHT22;42229;51.230;6.240;2022-12-07T02:03:07;6.50;99.90
27647;DHT22;42229;51.230;6.240;2022-12-07T02:05:37;6.50;99.90
27647;DHT22;42229;51.230;6.240;2022-12-07T02:08:04;6.50;99.90
27647;DHT22;42229;51.230;6.240;2022-12-07T02:10:31;6.50;99.90
27647;DHT22;42229;51.230;6.240;2022-12-07T02:13:19;6.50;99.90
27647;DHT22;42229;51.230;6.240;2022-12-07T02:15:59;6.50;99.90
27647;DHT22;42229;51.230;6.240;2022-12-07T02:18:38;6.40;99.90
27647;DHT22;42229;51.230;6.240;2022-12-07T02:30:00;6.40;99.90
27647;DHT22;42229;51.230;6.240;2022-12-07T02:38:20;6.40;99.90
27647;DHT22;42229;51.230;6.240;2022-12-07T02:40:50;6.40;99.90
27647;DHT22;42229;51.230;6.240;2022-12-07T02:43:21;6.40;99.90
27647;DHT22;42229;51.230;6.240;2022-12-07T02:45:55;6.40;99.90
27647;DHT22;42229;51.230;6.240;2022-12-07T02:48:24;6.40;99.90
27647;DHT22;42229;51.230;6.240;2022-12-07T02:50:51;6.40;99.90
27647;DHT22;42229;51.230;6.240;2022-12-07T03:00:07;6.50;99.90
27647;DHT22;42229;51.230;6.240;2022-12-07T03:10:27;6.40;99.90
27647;DHT22;42229;51.230;6.240;2022-12-07T03:13:09;6.40;99.90
27647;DHT22;42229;51.230;6.240;2022-12-07T03:15:42;6.40;99.90
27647;DHT22;42229;51.230;6.240;2022-12-07T03:18:13;6.40;99.90
27647;DHT22;42229;51.230;6.240;2022-12-07T03:20:40;6.40;99.90
27647;DHT22;42229;51.230;6.240;2022-12-07T03:23:07;6.40;99.90
27647;DHT22;42229;51.230;6.240;2022-12-07T03:25:39;6.40;99.90
27647;DHT22;42229;51.230;6.240;2022-12-07T03:28:10;6.40;99.90
27647;DHT22;42229;51.230;6.240;2022-12-07T03:30:46;6.40;99.90
27647;DHT22;42229;51.230;6.240;2022-12-07T03:33:15;6.40;99.90
27647;DHT22;42229;51.230;6.240;2022-12-07T03:36:05;6.40;99.90
27647;DHT22;42229;51.230;6.240;2022-12-07T03:38:42;6.40;99.90
27647;DHT22;42229;51.230;6.240;2022-12-07T03:41:14;6.50;99.90
27647;DHT22;42229;51.230;6.240;2022-12-07T03:43:44;6.50;99.90
27647;DHT22;42229;51.230;6.240;2022-12-07T03:54:30;6.40;99.90
27647;DHT22;42229;51.230;6.240;2022-12-07T03:56:59;6.40;99.90
27647;DHT22;42229;51.230;6.240;2022-12-07T03:59:27;6.30;99.90
27647;DHT22;42229;51.230;6.240;2022-12-07T04:01:55;6.30;99.90
27647;DHT22;42229;51.230;6.240;2022-12-07T04:04:23;6.30;99.90
27647;DHT22;42229;51.230;6.240;2022-12-07T04:06:50;6.20;99.90
27647;DHT22;42229;51.230;6.240;2022-12-07T04:09:17;6.20;99.90
27647;DHT22;42229;51.230;6.240;2022-12-07T04:11:43;6.10;99.90
27647;DHT22;42229;51.230;6.240;2022-12-07T04:14:09;6.10;99.90
27647;DHT22;42229;51.230;6.240;2022-12-07T04:16:45;6.00;99.90
27647;DHT22;42229;51.230;6.240;2022-12-07T04:19:11;6.00;99.90
27647;DHT22;42229;51.230;6.240;2022-12-07T04:21:38;6.00;99.90
27647;DHT22;42229;51.230;6.240;2022-12-07T04:24:05;6.00;99.90
27647;DHT22;42229;51.230;6.240;2022-12-07T04:26:31;6.00;99.90
27647;DHT22;42229;51.230;6.240;2022-12-07T04:28:57;6.00;99.90
27647;DHT22;42229;51.230;6.240;2022-12-07T04:31:23;6.00;99.90
27647;DHT22;42229;51.230;6.240;2022-12-07T04:33:50;6.00;99.90
27647;DHT22;42229;51.230;6.240;2022-12-07T04:36:16;6.00;99.90
27647;DHT22;42229;51.230;6.240;2022-12-07T04:38:42;6.10;99.90
27647;DHT22;42229;51.230;6.240;2022-12-07T04:41:09;6.10;99.90
27647;DHT22;42229;51.230;6.240;2022-12-07T04:43:35;6.10;99.90
27647;DHT22;42229;51.230;6.240;2022-12-07T04:46:01;6.10;99.90
27647;DHT22;42229;51.230;6.240;2022-12-07T04:48:28;6.10;99.90
27647;DHT22;42229;51.230;6.240;2022-12-07T04:50:54;6.10;99.90
27647;DHT22;42229;51.230;6.240;2022-12-07T04:53:20;6.10;99.90
27647;DHT22;42229;51.230;6.240;2022-12-07T04:55:47;6.10;99.90
27647;DHT22;42229;51.230;6.240;2022-12-07T04:58:13;6.10;99.90
27647;DHT22;42229;51.230;6.240;2022-12-07T05:00:39;6.20;99.90
27647;DHT22;42229;51.230;6.240;2022-12-07T05:03:06;6.20;99.90
27647;DHT22;42229;51.230;6.240;2022-12-07T05:05:32;6.10;99.90
27647;DHT22;42229;51.230;6.240;2022-12-07T05:07:58;6.10;99.90
27647;DHT22;42229;51.230;6.240;2022-12-07T05:10:25;6.10;99.90
27647;DHT22;42229;51.230;6.240;2022-12-07T05:12:51;6.10;99.90
27647;DHT22;42229;51.230;6.240;2022-12-07T05:15:17;6.10;99.90
27647;DHT22;42229;51.230;6.240;2022-12-07T05:17:43;6.10;99.90
27647;DHT22;42229;51.230;6.240;2022-12-07T05:20:10;6.10;99.90
27647;DHT22;42229;51.230;6.240;2022-12-07T05:22:36;6.10;99.90
27647;DHT22;42229;51.230;6.240;2022-12-07T05:25:03;6.00;99.90
27647;DHT22;42229;51.230;6.240;2022-12-07T05:27:29;6.10;99.90
27647;DHT22;42229;51.230;6.240;2022-12-07T05:29:55;6.00;99.90
27647;DHT22;42229;51.230;6.240;2022-12-07T05:32:21;6.00;99.90
27647;DHT22;42229;51.230;6.240;2022-12-07T05:34:48;6.00;99.90
27647;DHT22;42229;51.230;6.240;2022-12-07T05:37:14;6.00;99.90
27647;DHT22;42229;51.230;6.240;2022-12-07T05:39:40;6.00;99.90
27647;DHT22;42229;51.230;6.240;2022-12-07T05:42:09;6.00;99.90
27647;DHT22;42229;51.230;6.240;2022-12-07T05:44:39;6.00;99.90
27647;DHT22;42229;51.230;6.240;2022-12-07T05:47:10;6.10;99.90
27647;DHT22;42229;51.230;6.240;2022-12-07T05:49:36;6.10;99.90
27647;DHT22;42229;51.230;6.240;2022-12-07T05:52:03;6.10;99.90
27647;DHT22;42229;51.230;6.240;2022-12-07T05:54:29;6.10;99.90
27647;DHT22;42229;51.230;6.240;2022-12-07T05:56:56;6.10;99.90
27647;DHT22;42229;51.230;6.240;2022-12-07T05:59:22;6.10;99.90
27647;DHT22;42229;51.230;6.240;2022-12-07T06:02:10;6.10;99.90
27647;DHT22;42229;51.230;6.240;2022-12-07T06:04:36;6.10;99.90
27647;DHT22;42229;51.230;6.240;2022-12-07T06:07:04;6.10;99.90
27647;DHT22;42229;51.230;6.240;2022-12-07T06:09:31;6.10;99.90
27647;DHT22;42229;51.230;6.240;2022-12-07T06:11:57;6.20;99.90
27647;DHT22;42229;51.230;6.240;2022-12-07T06:14:42;6.20;99.90
27647;DHT22;42229;51.230;6.240;2022-12-07T06:17:09;6.20;99.90
27647;DHT22;42229;51.230;6.240;2022-12-07T06:19:35;6.20;99.90
27647;DHT22;42229;51.230;6.240;2022-12-07T06:22:02;6.20;99.90
27647;DHT22;42229;51.230;6.240;2022-12-07T06:24:30;6.20;99.90
27647;DHT22;42229;51.230;6.240;2022-12-07T06:26:57;6.20;99.90
27647;DHT22;42229;51.230;6.240;2022-12-07T06:29:24;6.20;99.90
27647;DHT22;42229;51.230;6.240;2022-12-07T06:31:50;6.20;99.90
27647;DHT22;42229;51.230;6.240;2022-12-07T06:34:17;6.20;99.90
27647;DHT22;42229;51.230;6.240;2022-12-07T06:36:48;6.10;99.90
27647;DHT22;42229;51.230;6.240;2022-12-07T06:39:20;6.10;99.90
27647;DHT22;42229;51.230;6.240;2022-12-07T06:41:47;6.10;99.90
27647;DHT22;42229;51.230;6.240;2022-12-07T06:44:13;6.00;99.90
27647;DHT22;42229;51.230;6.240;2022-12-07T06:46:39;6.10;99.90
27647;DHT22;42229;51.230;6.240;2022-12-07T06:49:06;6.00;99.90
27647;DHT22;42229;51.230;6.240;2022-12-07T06:51:33;6.00;99.90
27647;DHT22;42229;51.230;6.240;2022-12-07T06:54:01;5.90;99.90
27647;DHT22;42229;51.230;6.240;2022-12-07T06:56:27;5.80;99.90
27647;DHT22;42229;51.230;6.240;2022-12-07T06:58:54;5.80;99.90
27647;DHT22;42229;51.230;6.240;2022-12-07T07:01:20;5.80;99.90
27647;DHT22;42229;51.230;6.240;2022-12-07T07:03:47;5.70;99.90
27647;DHT22;42229;51.230;6.240;2022-12-07T07:06:13;5.70;99.90
27647;DHT22;42229;51.230;6.240;2022-12-07T07:08:39;5.70;99.90
27647;DHT22;42229;51.230;6.240;2022-12-07T07:11:06;5.60;99.90
27647;DHT22;42229;51.230;6.240;2022-12-07T07:13:33;5.60;99.90
27647;DHT22;42229;51.230;6.240;2022-12-07T07:15:59;5.60;99.90
27647;DHT22;42229;51.230;6.240;2022-12-07T07:18:25;5.60;99.90
27647;DHT22;42229;51.230;6.240;2022-12-07T07:20:52;5.70;99.90
27647;DHT22;42229;51.230;6.240;2022-12-07T07:23:19;5.70;99.90
27647;DHT22;42229;51.230;6.240;2022-12-07T07:25:46;5.70;99.90
27647;DHT22;42229;51.230;6.240;2022-12-07T07:28:13;5.70;99.90
27647;DHT22;42229;51.230;6.240;2022-12-07T07:30:40;5.70;99.90
27647;DHT22;42229;51.230;6.240;2022-12-07T07:33:06;5.70;99.90
27647;DHT22;42229;51.230;6.240;2022-12-07T07:35:33;5.70;99.90
27647;DHT22;42229;51.230;6.240;2022-12-07T07:38:00;5.60;99.90
27647;DHT22;42229;51.230;6.240;2022-12-07T07:40:26;5.60;99.90
27647;DHT22;42229;51.230;6.240;2022-12-07T07:42:54;5.60;99.90
27647;DHT22;42229;51.230;6.240;2022-12-07T07:45:21;5.60;99.90
27647;DHT22;42229;51.230;6.240;2022-12-07T07:47:49;5.60;99.90
27647;DHT22;42229;51.230;6.240;2022-12-07T07:50:15;5.50;99.90
27647;DHT22;42229;51.230;6.240;2022-12-07T07:52:42;5.50;99.90
27647;DHT22;42229;51.230;6.240;2022-12-07T07:55:08;5.50;99.90
27647;DHT22;42229;51.230;6.240;2022-12-07T07:57:35;5.50;99.90
27647;DHT22;42229;51.230;6.240;2022-12-07T08:00:06;5.50;99.90
27647;DHT22;42229;51.230;6.240;2022-12-07T08:02:38;5.60;99.90
27647;DHT22;42229;51.230;6.240;2022-12-07T08:05:05;5.60;99.90
27647;DHT22;42229;51.230;6.240;2022-12-07T08:07:31;5.60;99.90
27647;DHT22;42229;51.230;6.240;2022-12-07T08:09:58;5.60;99.90
27647;DHT22;42229;51.230;6.240;2022-12-07T08:12:24;5.70;99.90
27647;DHT22;42229;51.230;6.240;2022-12-07T08:14:50;5.70;99.90
27647;DHT22;42229;51.230;6.240;2022-12-07T08:17:16;5.70;99.90
27647;DHT22;42229;51.230;6.240;2022-12-07T08:19:42;5.70;99.90
27647;DHT22;42229;51.230;6.240;2022-12-07T08:22:09;5.60;99.90
27647;DHT22;42229;51.230;6.240;2022-12-07T08:24:35;5.60;99.90
27647;DHT22;42229;51.230;6.240;2022-12-07T08:27:02;5.60;99.90
27647;DHT22;42229;51.230;6.240;2022-12-07T08:29:28;5.60;99.90
27647;DHT22;42229;51.230;6.240;2022-12-07T08:31:55;5.60;99.90
27647;DHT22;42229;51.230;6.240;2022-12-07T08:34:21;5.60;99.90
27647;DHT22;42229;51.230;6.240;2022-12-07T08:36:48;5.60;99.90
27647;DHT22;42229;51.230;6.240;2022-12-07T08:39:14;5.60;99.90
27647;DHT22;42229;51.230;6.240;2022-12-07T08:41:40;5.70;99.90
27647;DHT22;42229;51.230;6.240;2022-12-07T08:44:06;5.60;99.90
27647;DHT22;42229;51.230;6.240;2022-12-07T08:49:13;5.60;99.90
27647;DHT22;42229;51.230;6.240;2022-12-07T08:51:42;5.60;99.90
27647;DHT22;42229;51.230;6.240;2022-12-07T08:54:09;5.60;99.90
27647;DHT22;42229;51.230;6.240;2022-12-07T08:56:37;5.60;99.90
27647;DHT22;42229;51.230;6.240;2022-12-07T08:59:04;5.60;99.90
27647;DHT22;42229;51.230;6.240;2022-12-07T09:01:31;5.60;99.90
27647;DHT22;42229;51.230;6.240;2022-12-07T09:03:58;5.70;99.90
27647;DHT22;42229;51.230;6.240;2022-12-07T09:06:24;5.70;99.90
27647;DHT22;42229;51.230;6.240;2022-12-07T09:08:52;5.70;99.90
27647;DHT22;42229;51.230;6.240;2022-12-07T09:11:20;5.80;99.90
27647;DHT22;42229;51.230;6.240;2022-12-07T09:13:46;5.80;99.90
27647;DHT22;42229;51.230;6.240;2022-12-07T09:16:12;5.80;99.90
27647;DHT22;42229;51.230;6.240;2022-12-07T09:18:38;5.90;99.90
27647;DHT22;42229;51.230;6.240;2022-12-07T09:21:04;5.90;99.90
27647;DHT22;42229;51.230;6.240;2022-12-07T09:23:31;6.00;99.90
27647;DHT22;42229;51.230;6.240;2022-12-07T09:26:01;6.00;99.90
27647;DHT22;42229;51.230;6.240;2022-12-07T09:28:28;6.10;99.90
27647;DHT22;42229;51.230;6.240;2022-12-07T09:30:54;6.20;99.90
27647;DHT22;42229;51.230;6.240;2022-12-07T09:33:20;6.30;99.90
27647;DHT22;42229;51.230;6.240;2022-12-07T09:35:47;6.30;99.90
27647;DHT22;42229;51.230;6.240;2022-12-07T09:38:14;6.40;99.90
27647;DHT22;42229;51.230;6.240;2022-12-07T09:40:40;6.50;99.90
27647;DHT22;42229;51.230;6.240;2022-12-07T09:43:22;6.50;99.90
27647;DHT22;42229;51.230;6.240;2022-12-07T09:45:50;6.50;99.90
27647;DHT22;42229;51.230;6.240;2022-12-07T09:48:18;6.60;99.90
27647;DHT22;42229;51.230;6.240;2022-12-07T09:50:46;6.60;99.90
27647;DHT22;42229;51.230;6.240;2022-12-07T09:53:15;6.60;99.90
27647;DHT22;42229;51.230;6.240;2022-12-07T09:55:50;6.70;99.90
27647;DHT22;42229;51.230;6.240;2022-12-07T09:58:21;6.70;99.90
27647;DHT22;42229;51.230;6.240;2022-12-07T10:00:57;6.80;99.90
27647;DHT22;42229;51.230;6.240;2022-12-07T10:03:28;6.80;99.90
27647;DHT22;42229;51.230;6.240;2022-12-07T10:05:55;6.90;99.90
27647;DHT22;42229;51.230;6.240;2022-12-07T10:08:24;7.00;99.90
27647;DHT22;42229;51.230;6.240;2022-12-07T10:10:52;7.10;99.90
27647;DHT22;42229;51.230;6.240;2022-12-07T10:13:20;7.20;99.90
27647;DHT22;42229;51.230;6.240;2022-12-07T10:18:18;7.40;99.90
27647;DHT22;42229;51.230;6.240;2022-12-07T10:20:47;7.40;99.90
27647;DHT22;42229;51.230;6.240;2022-12-07T10:23:17;7.50;99.90
27647;DHT22;42229;51.230;6.240;2022-12-07T10:25:44;7.60;99.90
27647;DHT22;42229;51.230;6.240;2022-12-07T10:28:12;7.70;99.90
27647;DHT22;42229;51.230;6.240;2022-12-07T10:33:38;7.70;99.90
27647;DHT22;42229;51.230;6.240;2022-12-07T10:36:26;7.80;99.90
27647;DHT22;42229;51.230;6.240;2022-12-07T10:41:35;7.80;99.90
27647;DHT22;42229;51.230;6.240;2022-12-07T10:44:01;7.80;99.90
27647;DHT22;42229;51.230;6.240;2022-12-07T10:46:32;7.80;99.90
27647;DHT22;42229;51.230;6.240;2022-12-07T10:52:10;7.90;99.90
27647;DHT22;42229;51.230;6.240;2022-12-07T10:55:03;7.90;99.90
27647;DHT22;42229;51.230;6.240;2022-12-07T11:00:08;7.90;99.90
27647;DHT22;42229;51.230;6.240;2022-12-07T11:05:28;7.90;99.90
27647;DHT22;42229;51.230;6.240;2022-12-07T11:11:07;8.00;99.90
27647;DHT22;42229;51.230;6.240;2022-12-07T11:22:03;8.20;99.90
27647;DHT22;42229;51.230;6.240;2022-12-07T11:24:41;8.20;99.90
27647;DHT22;42229;51.230;6.240;2022-12-07T11:30:10;8.50;99.90
27647;DHT22;42229;51.230;6.240;2022-12-07T11:32:51;8.70;99.90
27647;DHT22;42229;51.230;6.240;2022-12-07T11:38:19;9.00;99.90
27647;DHT22;42229;51.230;6.240;2022-12-07T11:40:48;9.20;99.90
27647;DHT22;42229;51.230;6.240;2022-12-07T11:43:31;9.20;99.90
27647;DHT22;42229;51.230;6.240;2022-12-07T11:45:59;9.20;99.90
27647;DHT22;42229;51.230;6.240;2022-12-07T11:48:37;9.20;99.90
27647;DHT22;42229;51.230;6.240;2022-12-07T11:51:06;9.20;99.90
27647;DHT22;42229;51.230;6.240;2022-12-07T11:53:37;9.20;99.90
27647;DHT22;42229;51.230;6.240;2022-12-07T11:56:13;9.20;99.90
27647;DHT22;42229;51.230;6.240;2022-12-07T12:03:47;9.20;99.90
27647;DHT22;42229;51.230;6.240;2022-12-07T12:06:14;9.20;99.90
27647;DHT22;42229;51.230;6.240;2022-12-07T12:08:42;9.20;99.90
27647;DHT22;42229;51.230;6.240;2022-12-07T12:16:48;9.60;99.90
27647;DHT22;42229;51.230;6.240;2022-12-07T12:19:27;9.80;99.90
27647;DHT22;42229;51.230;6.240;2022-12-07T12:22:15;10.00;99.90
27647;DHT22;42229;51.230;6.240;2022-12-07T12:24:45;10.30;99.90
27647;DHT22;42229;51.230;6.240;2022-12-07T12:27:18;10.50;99.90
27647;DHT22;42229;51.230;6.240;2022-12-07T12:29:51;10.50;99.90
27647;DHT22;42229;51.230;6.240;2022-12-07T12:32:37;10.60;99.90
27647;DHT22;42229;51.230;6.240;2022-12-07T12:37:49;10.80;99.90
27647;DHT22;42229;51.230;6.240;2022-12-07T12:42:51;11.20;99.90
27647;DHT22;42229;51.230;6.240;2022-12-07T12:45:25;11.50;99.90
27647;DHT22;42229;51.230;6.240;2022-12-07T12:50:32;11.80;99.90
27647;DHT22;42229;51.230;6.240;2022-12-07T12:58:46;11.60;99.90
27647;DHT22;42229;51.230;6.240;2022-12-07T13:04:01;11.30;99.90
27647;DHT22;42229;51.230;6.240;2022-12-07T13:08:55;10.90;99.90
27647;DHT22;42229;51.230;6.240;2022-12-07T13:11:31;10.70;99.90
27647;DHT22;42229;51.230;6.240;2022-12-07T13:17:03;10.50;99.90
27647;DHT22;42229;51.230;6.240;2022-12-07T13:25:07;10.20;99.90
27647;DHT22;42229;51.230;6.240;2022-12-07T13:27:40;10.10;99.90
27647;DHT22;42229;51.230;6.240;2022-12-07T13:30:14;10.00;99.90
27647;DHT22;42229;51.230;6.240;2022-12-07T13:32:51;10.00;99.90
27647;DHT22;42229;51.230;6.240;2022-12-07T13:35:32;9.90;99.90
27647;DHT22;42229;51.230;6.240;2022-12-07T13:38:22;9.80;99.90
27647;DHT22;42229;51.230;6.240;2022-12-07T13:43:46;9.60;99.90
27647;DHT22;42229;51.230;6.240;2022-12-07T13:46:15;9.50;99.90
27647;DHT22;42229;51.230;6.240;2022-12-07T13:48:46;9.40;99.90
27647;DHT22;42229;51.230;6.240;2022-12-07T13:51:21;9.30;99.90
27647;DHT22;42229;51.230;6.240;2022-12-07T13:53:53;9.20;99.90
27647;DHT22;42229;51.230;6.240;2022-12-07T13:56:28;9.20;99.90
27647;DHT22;42229;51.230;6.240;2022-12-07T13:58:58;9.10;99.90
27647;DHT22;42229;51.230;6.240;2022-12-07T14:01:25;9.00;99.90
27647;DHT22;42229;51.230;6.240;2022-12-07T14:03:51;9.00;99.90
27647;DHT22;42229;51.230;6.240;2022-12-07T14:06:19;8.90;99.90
27647;DHT22;42229;51.230;6.240;2022-12-07T14:09:05;8.90;99.90
27647;DHT22;42229;51.230;6.240;2022-12-07T14:11:33;9.00;99.90
27647;DHT22;42229;51.230;6.240;2022-12-07T14:14:00;9.00;99.90
27647;DHT22;42229;51.230;6.240;2022-12-07T14:16:32;9.00;99.90
27647;DHT22;42229;51.230;6.240;2022-12-07T14:19:01;9.00;99.90
27647;DHT22;42229;51.230;6.240;2022-12-07T14:21:32;9.00;99.90
27647;DHT22;42229;51.230;6.240;2022-12-07T14:26:29;8.90;99.90
27647;DHT22;42229;51.230;6.240;2022-12-07T14:29:18;8.80;99.90
27647;DHT22;42229;51.230;6.240;2022-12-07T14:31:51;8.70;99.90
27647;DHT22;42229;51.230;6.240;2022-12-07T14:34:21;8.70;99.90
27647;DHT22;42229;51.230;6.240;2022-12-07T14:36:47;8.60;99.90
27647;DHT22;42229;51.230;6.240;2022-12-07T14:39:14;8.60;99.90
27647;DHT22;42229;51.230;6.240;2022-12-07T14:41:40;8.60;99.90
27647;DHT22;42229;51.230;6.240;2022-12-07T14:44:19;8.50;99.90
27647;DHT22;42229;51.230;6.240;2022-12-07T14:46:49;8.50;99.90
27647;DHT22;42229;51.230;6.240;2022-12-07T14:49:16;8.40;99.90
27647;DHT22;42229;51.230;6.240;2022-12-07T14:51:45;8.40;99.90
27647;DHT22;42229;51.230;6.240;2022-12-07T14:54:16;8.30;99.90
27647;DHT22;42229;51.230;6.240;2022-12-07T14:56:44;8.30;99.90
27647;DHT22;42229;51.230;6.240;2022-12-07T14:59:11;8.20;99.90
27647;DHT22;42229;51.230;6.240;2022-12-07T15:01:38;8.20;99.90
27647;DHT22;42229;51.230;6.240;2022-12-07T15:04:04;8.10;99.90
27647;DHT22;42229;51.230;6.240;2022-12-07T15:06:30;8.10;99.90
27647;DHT22;42229;51.230;6.240;2022-12-07T15:08:56;8.00;99.90
27647;DHT22;42229;51.230;6.240;2022-12-07T15:11:23;8.00;99.90
27647;DHT22;42229;51.230;6.240;2022-12-07T15:13:49;7.90;99.90
27647;DHT22;42229;51.230;6.240;2022-12-07T15:16:34;7.80;99.90
27647;DHT22;42229;51.230;6.240;2022-12-07T15:19:01;7.80;99.90
27647;DHT22;42229;51.230;6.240;2022-12-07T15:21:27;7.70;99.90
27647;DHT22;42229;51.230;6.240;2022-12-07T15:23:53;7.70;99.90
27647;DHT22;42229;51.230;6.240;2022-12-07T15:26:20;7.60;99.90
27647;DHT22;42229;51.230;6.240;2022-12-07T15:28:46;7.60;99.90
27647;DHT22;42229;51.230;6.240;2022-12-07T15:31:13;7.50;99.90
27647;DHT22;42229;51.230;6.240;2022-12-07T15:33:40;7.50;99.90
27647;DHT22;42229;51.230;6.240;2022-12-07T15:36:06;7.40;99.90
27647;DHT22;42229;51.230;6.240;2022-12-07T15:38:33;7.40;99.90
27647;DHT22;42229;51.230;6.240;2022-12-07T15:40:59;7.30;99.90
27647;DHT22;42229;51.230;6.240;2022-12-07T15:43:25;7.30;99.90
27647;DHT22;42229;51.230;6.240;2022-12-07T15:46:10;7.30;99.90
27647;DHT22;42229;51.230;6.240;2022-12-07T15:48:36;7.20;99.90
27647;DHT22;42229;51.230;6.240;2022-12-07T15:51:03;7.20;99.90
27647;DHT22;42229;51.230;6.240;2022-12-07T15:53:33;7.10;99.90
27647;DHT22;42229;51.230;6.240;2022-12-07T15:56:00;7.10;99.90
27647;DHT22;42229;51.230;6.240;2022-12-07T15:58:26;7.10;99.90
27647;DHT22;42229;51.230;6.240;2022-12-07T16:00:53;7.00;99.90
27647;DHT22;42229;51.230;6.240;2022-12-07T16:03:19;7.00;99.90
27647;DHT22;42229;51.230;6.240;2022-12-07T16:05:49;7.00;99.90
27647;DHT22;42229;51.230;6.240;2022-12-07T16:08:15;7.00;99.90
27647;DHT22;42229;51.230;6.240;2022-12-07T16:10:42;7.10;99.90
27647;DHT22;42229;51.230;6.240;2022-12-07T16:13:09;7.10;99.90
27647;DHT22;42229;51.230;6.240;2022-12-07T16:15:39;7.10;99.90
27647;DHT22;42229;51.230;6.240;2022-12-07T16:18:06;7.10;99.90
27647;DHT22;42229;51.230;6.240;2022-12-07T16:20:32;7.10;99.90
27647;DHT22;42229;51.230;6.240;2022-12-07T16:22:58;7.20;99.90
27647;DHT22;42229;51.230;6.240;2022-12-07T16:25:25;7.20;99.90
27647;DHT22;42229;51.230;6.240;2022-12-07T16:27:52;7.20;99.90
27647;DHT22;42229;51.230;6.240;2022-12-07T16:30:18;7.20;99.90
27647;DHT22;42229;51.230;6.240;2022-12-07T16:32:44;7.20;99.90
27647;DHT22;42229;51.230;6.240;2022-12-07T16:35:11;7.20;99.90
27647;DHT22;42229;51.230;6.240;2022-12-07T16:37:37;7.20;99.90
27647;DHT22;42229;51.230;6.240;2022-12-07T16:40:03;7.20;99.90
27647;DHT22;42229;51.230;6.240;2022-12-07T16:42:31;7.20;99.90
27647;DHT22;42229;51.230;6.240;2022-12-07T16:44:58;7.30;99.90
27647;DHT22;42229;51.230;6.240;2022-12-07T16:47:24;7.30;99.90
27647;DHT22;42229;51.230;6.240;2022-12-07T16:49:50;7.30;99.90
27647;DHT22;42229;51.230;6.240;2022-12-07T16:52:20;7.30;99.90
27647;DHT22;42229;51.230;6.240;2022-12-07T16:54:47;7.30;99.90
27647;DHT22;42229;51.230;6.240;2022-12-07T16:57:14;7.30;99.90
27647;DHT22;42229;51.230;6.240;2022-12-07T16:59:41;7.40;99.90
27647;DHT22;42229;51.230;6.240;2022-12-07T17:02:09;7.30;99.90
27647;DHT22;42229;51.230;6.240;2022-12-07T17:04:36;7.30;99.90
27647;DHT22;42229;51.230;6.240;2022-12-07T17:07:05;7.30;99.90
27647;DHT22;42229;51.230;6.240;2022-12-07T17:09:31;7.30;99.90
27647;DHT22;42229;51.230;6.240;2022-12-07T17:11:58;7.30;99.90
27647;DHT22;42229;51.230;6.240;2022-12-07T17:14:24;7.30;99.90
27647;DHT22;42229;51.230;6.240;2022-12-07T17:17:09;7.30;99.90
27647;DHT22;42229;51.230;6.240;2022-12-07T17:19:35;7.30;99.90
27647;DHT22;42229;51.230;6.240;2022-12-07T17:22:01;7.30;99.90
27647;DHT22;42229;51.230;6.240;2022-12-07T17:24:28;7.30;99.90
27647;DHT22;42229;51.230;6.240;2022-12-07T17:26:54;7.30;99.90
27647;DHT22;42229;51.230;6.240;2022-12-07T17:29:20;7.30;99.90
27647;DHT22;42229;51.230;6.240;2022-12-07T17:31:47;7.30;99.90
27647;DHT22;42229;51.230;6.240;2022-12-07T17:34:14;7.30;99.90
27647;DHT22;42229;51.230;6.240;2022-12-07T17:36:41;7.30;99.90
27647;DHT22;42229;51.230;6.240;2022-12-07T17:39:11;7.20;99.90
27647;DHT22;42229;51.230;6.240;2022-12-07T17:41:39;7.20;99.90
27647;DHT22;42229;51.230;6.240;2022-12-07T17:44:24;7.30;99.90
27647;DHT22;42229;51.230;6.240;2022-12-07T17:46:51;7.20;99.90
27647;DHT22;42229;51.230;6.240;2022-12-07T17:49:22;7.20;99.90
27647;DHT22;42229;51.230;6.240;2022-12-07T17:51:49;7.30;99.90
27647;DHT22;42229;51.230;6.240;2022-12-07T17:54:34;7.20;99.90